createdAt,value
2019-02-19T00:00:33.705Z,4.37
2019-02-19T00:03:05.171Z,5.40
2019-02-19T00:05:36.241Z,5.33
2019-02-19T00:08:07.397Z,5.37
2019-02-19T00:10:39.556Z,6.00
2019-02-19T00:13:10.757Z,5.70
2019-02-19T00:15:41.834Z,5.63
2019-02-19T00:18:12.914Z,6.20
2019-02-19T00:20:44.089Z,5.53
2019-02-19T00:23:15.200Z,5.30
2019-02-19T00:25:46.191Z,6.27
2019-02-19T00:28:17.319Z,5.63
2019-02-19T00:30:48.315Z,5.53
2019-02-19T00:33:19.454Z,5.70
2019-02-19T00:35:50.562Z,5.63
2019-02-19T00:38:21.658Z,6.60
2019-02-19T00:40:52.718Z,7.40
2019-02-19T00:43:31.182Z,6.90
2019-02-19T00:46:02.361Z,7.00
2019-02-19T00:48:33.559Z,6.85
2019-02-19T00:51:04.810Z,6.13
2019-02-19T00:53:36.077Z,6.93
2019-02-19T00:56:07.158Z,6.60
2019-02-19T00:58:38.178Z,6.00
2019-02-19T01:01:09.425Z,5.67
2019-02-19T01:03:40.635Z,6.33
2019-02-19T01:06:11.787Z,6.40
2019-02-19T01:08:43.934Z,7.00
2019-02-19T01:11:15.256Z,6.40
2019-02-19T01:13:46.485Z,6.40
2019-02-19T01:16:17.531Z,5.77
2019-02-19T01:18:48.555Z,5.40
2019-02-19T01:21:19.651Z,5.73
2019-02-19T01:23:50.883Z,6.10
2019-02-19T01:26:21.987Z,6.40
2019-02-19T01:28:53.002Z,6.17
2019-02-19T01:31:24.118Z,5.80
2019-02-19T01:33:55.286Z,6.10
2019-02-19T01:36:26.288Z,6.07
2019-02-19T01:38:57.611Z,6.10
2019-02-19T01:41:28.612Z,6.67
2019-02-19T01:43:59.669Z,6.03
2019-02-19T01:46:30.659Z,5.80
2019-02-19T01:49:01.861Z,6.43
2019-02-19T01:51:33.003Z,6.90
2019-02-19T01:54:04.366Z,7.73
2019-02-19T01:56:35.378Z,7.30
2019-02-19T01:59:06.458Z,7.30
2019-02-19T02:01:37.633Z,7.03
2019-02-19T02:04:08.651Z,7.23
2019-02-19T02:06:39.711Z,6.87
2019-02-19T02:09:10.876Z,8.53
2019-02-19T02:11:42.033Z,7.87
2019-02-19T02:14:13.083Z,8.10
2019-02-19T02:16:44.171Z,8.00
2019-02-19T02:19:15.264Z,8.27
2019-02-19T02:21:46.406Z,7.77
2019-02-19T02:24:17.478Z,7.27
2019-02-19T02:26:48.637Z,6.50
2019-02-19T02:29:19.905Z,7.37
2019-02-19T02:31:51.033Z,8.00
2019-02-19T02:34:22.170Z,8.23
2019-02-19T02:36:53.270Z,8.33
2019-02-19T02:39:24.308Z,9.27
2019-02-19T02:41:55.391Z,8.13
2019-02-19T02:44:26.434Z,8.07
2019-02-19T02:46:57.517Z,8.10
2019-02-19T02:49:28.583Z,7.87
2019-02-19T02:51:59.581Z,7.77
2019-02-19T02:54:30.779Z,7.37
2019-02-19T02:57:01.792Z,9.08
2019-02-19T02:59:33.169Z,8.23
2019-02-19T03:02:04.335Z,9.10
2019-02-19T03:04:35.422Z,8.60
2019-02-19T03:07:14.488Z,7.63
2019-02-19T03:09:45.497Z,8.33
2019-02-19T03:12:16.678Z,8.93
2019-02-19T03:14:47.782Z,8.40
2019-02-19T03:17:18.943Z,8.73
2019-02-19T03:19:49.987Z,8.40
2019-02-19T03:22:20.964Z,8.17
2019-02-19T03:24:52.004Z,9.73
2019-02-19T03:27:23.063Z,9.60
2019-02-19T03:29:55.039Z,9.20
2019-02-19T03:32:26.058Z,9.50
2019-02-19T03:34:57.064Z,8.30
2019-02-19T03:37:28.076Z,8.23
2019-02-19T03:39:59.111Z,8.30
2019-02-19T03:42:30.166Z,9.13
2019-02-19T03:45:01.250Z,8.83
2019-02-19T03:47:32.324Z,8.13
2019-02-19T03:50:03.604Z,10.30
2019-02-19T03:52:34.783Z,9.80
2019-02-19T03:55:05.952Z,9.40
2019-02-19T03:57:37.106Z,9.40
2019-02-19T04:00:08.381Z,10.10
2019-02-19T04:02:39.453Z,10.73
2019-02-19T04:05:10.636Z,9.17
2019-02-19T04:07:41.685Z,9.00
2019-02-19T04:10:12.767Z,8.93
2019-02-19T04:12:43.823Z,8.73
2019-02-19T04:15:14.995Z,9.30
2019-02-19T04:17:46.062Z,8.67
2019-02-19T04:20:17.250Z,8.60
2019-02-19T04:22:48.317Z,8.93
2019-02-19T04:25:19.624Z,9.60
2019-02-19T04:27:50.612Z,11.07
2019-02-19T04:30:21.680Z,8.43
2019-02-19T04:32:52.889Z,8.73
2019-02-19T04:35:23.929Z,9.17
2019-02-19T04:37:55.003Z,10.13
2019-02-19T04:40:26.106Z,8.77
2019-02-19T04:42:57.083Z,8.90
2019-02-19T04:45:28.090Z,8.33
2019-02-19T04:48:00.589Z,9.63
2019-02-19T04:50:31.642Z,8.53
2019-02-19T04:53:02.636Z,9.13
2019-02-19T04:55:33.717Z,9.07
2019-02-19T04:58:04.868Z,9.80
2019-02-19T05:00:36.113Z,10.13
2019-02-19T05:03:07.128Z,10.32
2019-02-19T05:05:38.215Z,10.57
2019-02-19T05:08:09.231Z,9.03
2019-02-19T05:10:40.268Z,10.23
2019-02-19T05:13:11.342Z,9.53
2019-02-19T05:15:42.535Z,8.83
2019-02-19T05:18:13.528Z,9.63
2019-02-19T05:20:44.607Z,9.20
2019-02-19T05:23:15.710Z,9.10
2019-02-19T05:25:46.733Z,11.07
2019-02-19T05:28:17.710Z,9.80
2019-02-19T05:30:48.863Z,9.37
2019-02-19T05:33:19.994Z,9.43
2019-02-19T05:35:50.999Z,10.40
2019-02-19T05:38:23.076Z,10.27
2019-02-19T05:40:54.158Z,10.73
2019-02-19T05:43:25.220Z,9.60
2019-02-19T05:45:56.361Z,10.40
2019-02-19T05:48:27.619Z,11.33
2019-02-19T05:50:58.823Z,9.40
2019-02-19T05:53:30.027Z,11.97
2019-02-19T05:56:01.121Z,10.73
2019-02-19T05:58:32.370Z,10.10
2019-02-19T06:01:03.450Z,9.97
2019-02-19T06:03:34.587Z,9.90
2019-02-19T06:06:05.754Z,11.70
2019-02-19T06:08:36.751Z,11.80
2019-02-19T06:11:07.803Z,10.87
2019-02-19T06:13:38.980Z,12.10
2019-02-19T06:16:10.122Z,10.20
2019-02-19T06:18:41.118Z,13.07
2019-02-19T06:21:12.216Z,11.30
2019-02-19T06:23:43.254Z,11.17
2019-02-19T06:26:14.423Z,10.70
2019-02-19T06:28:45.581Z,12.00
2019-02-19T06:31:16.650Z,11.60
2019-02-19T06:33:47.703Z,10.67
2019-02-19T06:36:18.788Z,11.47
2019-02-19T06:38:49.989Z,10.23
2019-02-19T06:41:21.146Z,9.70
2019-02-19T06:43:52.292Z,9.23
2019-02-19T06:46:23.381Z,9.00
2019-02-19T06:48:54.486Z,10.00
2019-02-19T06:51:25.582Z,10.90
2019-02-19T06:53:56.567Z,10.70
2019-02-19T06:56:27.591Z,10.43
2019-02-19T06:58:58.681Z,10.00
2019-02-19T07:01:58.005Z,8.90
2019-02-19T07:04:42.239Z,9.83
2019-02-19T07:07:13.326Z,10.68
2019-02-19T07:09:45.389Z,13.60
2019-02-19T07:12:16.557Z,11.53
2019-02-19T07:14:47.662Z,11.40
2019-02-19T07:17:18.846Z,12.13
2019-02-19T07:19:49.903Z,12.63
2019-02-19T07:22:20.945Z,12.10
2019-02-19T07:24:52.038Z,11.23
2019-02-19T07:27:23.469Z,12.20
2019-02-19T07:29:54.490Z,11.10
2019-02-19T07:32:25.585Z,10.90
2019-02-19T07:34:56.654Z,12.30
2019-02-19T07:37:27.652Z,12.30
2019-02-19T07:39:58.720Z,11.23
2019-02-19T07:42:29.985Z,11.67
2019-02-19T07:45:00.976Z,11.47
2019-02-19T07:47:32.243Z,11.57
2019-02-19T07:50:03.615Z,10.40
2019-02-19T07:52:34.652Z,11.33
2019-02-19T07:55:06.226Z,10.80
2019-02-19T07:57:37.324Z,10.77
2019-02-19T08:00:09.278Z,11.23
2019-02-19T08:02:40.355Z,10.77
2019-02-19T08:05:11.532Z,10.50
2019-02-19T08:07:43.969Z,10.93
2019-02-19T08:10:14.980Z,11.27
2019-02-19T08:12:47.474Z,11.83
2019-02-19T08:15:18.642Z,10.33
2019-02-19T08:17:49.823Z,9.07
2019-02-19T08:20:20.949Z,10.57
2019-02-19T08:22:51.983Z,9.70
2019-02-19T08:25:23.083Z,9.50
2019-02-19T08:27:54.172Z,10.45
2019-02-19T08:30:25.185Z,10.70
2019-02-19T08:32:56.270Z,10.53
2019-02-19T08:35:27.277Z,9.73
2019-02-19T08:37:59.333Z,9.10
2019-02-19T08:40:30.373Z,9.10
2019-02-19T08:43:01.475Z,8.33
2019-02-19T08:45:32.615Z,8.20
2019-02-19T08:48:03.799Z,8.23
2019-02-19T08:50:34.790Z,7.50
2019-02-19T08:53:05.936Z,8.00
2019-02-19T08:55:37.059Z,8.45
2019-02-19T08:58:08.190Z,7.90
2019-02-19T09:00:39.335Z,7.30
2019-02-19T09:03:10.399Z,7.20
2019-02-19T09:05:41.491Z,7.07
2019-02-19T09:08:12.589Z,6.57
2019-02-19T09:10:43.653Z,6.57
2019-02-19T09:13:14.688Z,7.53
2019-02-19T09:15:45.740Z,7.70
2019-02-19T09:18:16.763Z,6.43
2019-02-19T09:20:47.752Z,7.27
2019-02-19T09:23:18.760Z,6.97
2019-02-19T09:25:49.757Z,6.77
2019-02-19T09:28:20.850Z,6.93
2019-02-19T09:30:51.841Z,5.80
2019-02-19T09:33:23.009Z,6.07
2019-02-19T09:35:54.022Z,5.20
2019-02-19T09:38:25.108Z,6.50
2019-02-19T09:40:56.208Z,6.27
2019-02-19T09:43:35.294Z,6.07
2019-02-19T09:46:00.317Z,6.33
2019-02-19T09:48:31.409Z,5.33
2019-02-19T09:51:02.494Z,6.50
2019-02-19T09:53:33.639Z,5.90
2019-02-19T09:56:04.839Z,6.17
2019-02-19T09:58:35.925Z,5.93
2019-02-19T10:01:07.190Z,5.53
2019-02-19T10:03:38.270Z,5.67
2019-02-19T10:06:09.327Z,6.10
2019-02-19T10:08:40.348Z,5.90
2019-02-19T10:11:11.446Z,5.43
2019-02-19T10:13:44.029Z,5.73
2019-02-19T10:16:15.093Z,6.90
2019-02-19T10:18:46.258Z,6.13
2019-02-19T10:21:17.300Z,5.20
2019-02-19T10:23:48.397Z,6.33
2019-02-19T10:26:19.476Z,6.37
2019-02-19T10:28:50.594Z,6.03
2019-02-19T10:31:21.749Z,6.27
2019-02-19T10:33:52.830Z,5.85
2019-02-19T10:36:23.971Z,5.70
2019-02-19T10:38:55.071Z,6.03
2019-02-19T10:41:26.343Z,5.80
2019-02-19T10:43:57.406Z,6.37
2019-02-19T10:46:28.498Z,5.07
2019-02-19T10:48:59.610Z,5.33
2019-02-19T10:51:30.782Z,6.00
2019-02-19T10:54:01.874Z,5.70
2019-02-19T10:56:33.022Z,6.07
2019-02-19T10:59:04.255Z,5.50
2019-02-19T11:01:35.513Z,5.33
2019-02-19T11:04:06.541Z,4.87
2019-02-19T11:06:38.989Z,5.70
2019-02-19T11:09:10.152Z,5.63
2019-02-19T11:11:41.252Z,5.57
2019-02-19T11:14:12.292Z,4.70
2019-02-19T11:16:43.381Z,5.30
2019-02-19T11:19:14.434Z,5.37
2019-02-19T11:21:45.532Z,5.17
2019-02-19T11:24:17.985Z,4.10
2019-02-19T11:26:49.073Z,4.80
2019-02-19T11:29:20.086Z,3.47
2019-02-19T11:31:51.946Z,4.33
2019-02-19T11:34:23.030Z,4.60
2019-02-19T11:36:54.160Z,4.90
2019-02-19T11:39:25.264Z,4.93
2019-02-19T11:41:56.281Z,5.00
2019-02-19T11:44:27.323Z,4.90
2019-02-19T11:46:58.503Z,4.10
2019-02-19T11:49:29.645Z,4.90
2019-02-19T11:52:00.700Z,5.45
2019-02-19T11:54:31.872Z,5.97
2019-02-19T11:57:02.911Z,5.10
2019-02-19T11:59:33.973Z,5.33
2019-02-19T12:02:08.799Z,4.60
2019-02-19T12:04:39.854Z,5.97
2019-02-19T12:07:10.997Z,4.60
2019-02-19T12:09:42.004Z,5.10
2019-02-19T12:12:13.097Z,5.90
2019-02-19T12:14:44.250Z,5.80
2019-02-19T12:17:15.315Z,6.08
2019-02-19T12:19:46.470Z,5.67
2019-02-19T12:22:17.555Z,5.40
2019-02-19T12:24:48.647Z,5.40
2019-02-19T12:27:19.822Z,5.47
2019-02-19T12:29:51.579Z,5.63
2019-02-19T12:32:22.638Z,4.63
2019-02-19T12:34:53.654Z,5.50
2019-02-19T12:37:24.662Z,5.90
2019-02-19T12:39:55.671Z,5.57
2019-02-19T12:42:26.792Z,5.13
2019-02-19T12:44:57.878Z,5.45
2019-02-19T12:47:28.939Z,5.40
2019-02-19T12:49:59.981Z,5.40
2019-02-19T12:52:31.091Z,5.50
2019-02-19T12:55:02.258Z,5.37
2019-02-19T12:57:33.274Z,5.67
2019-02-19T13:00:04.663Z,5.67
2019-02-19T13:02:36.116Z,6.00
2019-02-19T13:05:09.026Z,4.63
2019-02-19T13:07:40.183Z,5.00
2019-02-19T13:10:11.588Z,5.07
2019-02-19T13:12:42.735Z,3.93
2019-02-19T13:15:14.683Z,3.93
2019-02-19T13:17:45.793Z,4.27
2019-02-19T13:20:16.902Z,4.70
2019-02-19T13:22:47.968Z,4.47
2019-02-19T13:25:19.142Z,3.83
2019-02-19T13:27:50.143Z,3.47
2019-02-19T13:30:21.258Z,3.73
2019-02-19T13:32:52.270Z,3.60
2019-02-19T13:35:23.434Z,4.00
2019-02-19T13:37:54.452Z,4.63
2019-02-19T13:40:25.552Z,3.00
2019-02-19T13:42:56.692Z,3.53
2019-02-19T13:45:27.852Z,3.20
2019-02-19T13:48:05.675Z,3.37
2019-02-19T13:50:31.877Z,3.10
2019-02-19T13:53:24.865Z,3.03
2019-02-19T13:55:57.197Z,3.37
2019-02-19T13:58:28.313Z,3.30
2019-02-19T14:00:59.577Z,4.33
2019-02-19T14:03:30.847Z,3.70
2019-02-19T14:06:02.021Z,3.00
2019-02-19T14:08:33.016Z,3.43
2019-02-19T14:11:04.150Z,2.93
2019-02-19T14:13:35.222Z,4.00
2019-02-19T14:16:16.810Z,3.43
2019-02-19T14:18:53.347Z,3.87
2019-02-19T14:21:42.693Z,3.60
2019-02-19T14:24:31.487Z,3.30
2019-02-19T14:27:15.319Z,3.80
2019-02-19T14:30:13.910Z,3.70
2019-02-19T14:33:10.103Z,3.77
2019-02-19T14:35:59.080Z,3.60
2019-02-19T14:38:44.677Z,4.07
2019-02-19T14:41:45.216Z,4.63
2019-02-19T14:44:37.757Z,4.57
2019-02-19T14:47:34.718Z,4.07
2019-02-19T14:50:27.719Z,4.62
2019-02-19T14:53:32.891Z,4.87
2019-02-19T14:56:31.759Z,4.40
2019-02-19T14:59:21.849Z,5.23
2019-02-19T15:02:17.724Z,4.40
2019-02-19T15:05:06.369Z,4.27
2019-02-19T15:08:05.327Z,4.00
2019-02-19T15:10:55.408Z,5.20
2019-02-19T15:13:39.682Z,4.63
2019-02-19T15:16:24.677Z,4.90
2019-02-19T15:19:19.726Z,4.70
2019-02-19T15:22:12.695Z,5.13
2019-02-19T15:24:58.820Z,4.23
2019-02-19T15:27:57.994Z,5.57
2019-02-19T15:30:57.117Z,5.58
2019-02-19T15:33:45.885Z,5.50
2019-02-19T15:36:48.314Z,4.60
2019-02-19T15:39:41.172Z,5.93
2019-02-19T15:42:31.317Z,5.93
2019-02-19T15:45:13.250Z,4.97
2019-02-19T15:48:05.736Z,5.10
2019-02-19T15:51:03.167Z,5.10
2019-02-19T15:53:47.734Z,5.00
2019-02-19T15:56:30.884Z,6.00
2019-02-19T15:59:19.733Z,5.20
2019-02-19T16:02:07.187Z,5.20
2019-02-19T16:04:42.681Z,5.30
2019-02-19T16:07:20.158Z,5.60
2019-02-19T16:10:03.119Z,4.80
2019-02-19T16:12:52.283Z,6.40
2019-02-19T16:15:47.133Z,5.85
2019-02-19T16:18:37.170Z,5.37
2019-02-19T16:21:17.842Z,6.13
2019-02-19T16:24:02.386Z,4.90
2019-02-19T16:26:43.036Z,5.47
2019-02-19T16:29:29.371Z,5.50
2019-02-19T16:32:29.767Z,5.63
2019-02-19T16:35:11.287Z,5.83
2019-02-19T16:38:02.270Z,5.70
2019-02-19T16:40:43.052Z,5.80
2019-02-19T16:43:36.130Z,5.70
2019-02-19T16:46:25.355Z,5.63
2019-02-19T16:49:09.414Z,7.80
2019-02-19T16:52:02.714Z,6.50
2019-02-19T16:55:08.105Z,7.20
2019-02-19T16:58:03.777Z,7.60
2019-02-19T17:00:56.646Z,7.83
2019-02-19T17:03:43.315Z,6.30
2019-02-19T17:06:33.462Z,6.50
2019-02-19T17:09:34.899Z,7.30
2019-02-19T17:12:21.637Z,6.87
2019-02-19T17:15:14.527Z,6.67
2019-02-19T17:18:10.473Z,6.80
2019-02-19T17:21:00.564Z,8.20
2019-02-19T17:23:39.921Z,9.07
2019-02-19T17:26:16.224Z,8.23
2019-02-19T17:29:06.493Z,8.00
2019-02-19T17:32:00.596Z,12.95
2019-02-19T17:34:39.600Z,7.93
2019-02-19T17:37:29.734Z,8.03
2019-02-19T17:40:31.829Z,9.50
2019-02-19T17:43:14.175Z,7.20
2019-02-19T17:45:59.074Z,7.87
2019-02-19T17:48:49.144Z,7.23
2019-02-19T17:51:31.424Z,7.50
2019-02-19T17:54:24.599Z,7.93
2019-02-19T17:57:14.950Z,7.08
2019-02-19T17:59:55.379Z,7.70
2019-02-19T18:02:41.353Z,8.30
2019-02-19T18:05:37.691Z,7.50
2019-02-19T18:08:42.870Z,7.50
2019-02-19T18:11:42.219Z,7.43
2019-02-19T18:14:36.000Z,18.42
2019-02-19T18:17:35.078Z,8.80
2019-02-19T18:20:06.511Z,7.80
2019-02-19T18:22:37.595Z,8.33
2019-02-19T18:25:08.772Z,7.97
2019-02-19T18:27:39.880Z,8.10
2019-02-19T18:30:11.054Z,8.33
2019-02-19T18:32:42.229Z,9.17
2019-02-19T18:35:13.292Z,11.40
2019-02-19T18:37:44.389Z,11.03
2019-02-19T18:40:15.505Z,11.10
2019-02-19T18:42:46.614Z,10.40
2019-02-19T18:45:17.756Z,10.30
2019-02-19T18:47:48.789Z,10.60
2019-02-19T18:50:20.045Z,11.20
2019-02-19T18:52:51.148Z,10.97
2019-02-19T18:55:22.310Z,10.17
2019-02-19T18:57:53.314Z,10.13
2019-02-19T19:00:24.475Z,10.50
2019-02-19T19:02:55.711Z,11.70
2019-02-19T19:05:26.893Z,10.60
2019-02-19T19:07:58.175Z,12.20
2019-02-19T19:10:29.379Z,11.40
2019-02-19T19:13:00.502Z,12.05
2019-02-19T19:15:31.713Z,12.37
2019-02-19T19:18:02.828Z,13.23
2019-02-19T19:20:33.907Z,12.40
2019-02-19T19:23:05.625Z,11.60
2019-02-19T19:25:36.741Z,12.37
2019-02-19T19:28:08.007Z,11.50
2019-02-19T19:30:38.947Z,11.73
2019-02-19T19:33:09.941Z,12.43
2019-02-19T19:35:41.095Z,12.77
2019-02-19T19:38:12.104Z,12.85
2019-02-19T19:40:43.176Z,13.40
2019-02-19T19:43:15.323Z,13.03
2019-02-19T19:45:46.496Z,14.30
2019-02-19T19:48:17.539Z,14.90
2019-02-19T19:50:48.547Z,14.10
2019-02-19T19:53:19.721Z,14.10
2019-02-19T19:55:50.737Z,13.27
2019-02-19T19:58:21.937Z,13.77
2019-02-19T20:00:52.944Z,13.97
2019-02-19T20:03:24.051Z,16.23
2019-02-19T20:05:55.166Z,15.00
2019-02-19T20:08:26.292Z,13.30
2019-02-19T20:10:57.413Z,14.77
2019-02-19T20:13:28.693Z,14.43
2019-02-19T20:16:01.254Z,54.25
2019-02-19T20:18:38.910Z,35.50
2019-02-19T20:21:05.219Z,16.90
2019-02-19T20:23:36.470Z,14.37
2019-02-19T20:26:07.542Z,15.33
2019-02-19T20:28:39.618Z,16.90
2019-02-19T20:31:10.786Z,15.60
2019-02-19T20:33:41.866Z,15.50
2019-02-19T20:36:13.018Z,15.97
2019-02-19T20:38:44.155Z,15.33
2019-02-19T20:41:15.258Z,15.43
2019-02-19T20:43:46.463Z,15.30
2019-02-19T20:46:17.583Z,16.70
2019-02-19T20:48:49.790Z,15.30
2019-02-19T20:51:20.909Z,16.73
2019-02-19T20:53:52.063Z,16.17
2019-02-19T20:56:23.241Z,16.90
2019-02-19T20:58:54.336Z,15.03
2019-02-19T21:01:25.504Z,16.57
2019-02-19T21:03:56.632Z,15.93
2019-02-19T21:06:27.825Z,15.90
2019-02-19T21:08:59.187Z,17.30
2019-02-19T21:11:30.243Z,16.57
2019-02-19T21:14:01.353Z,18.37
2019-02-19T21:16:32.455Z,17.20
2019-02-19T21:19:03.565Z,16.33
2019-02-19T21:21:34.634Z,17.70
2019-02-19T21:24:05.848Z,18.07
2019-02-19T21:26:37.033Z,18.27
2019-02-19T21:29:08.061Z,17.10
2019-02-19T21:31:40.374Z,16.77
2019-02-19T21:34:11.703Z,17.00
2019-02-19T21:36:42.707Z,17.80
2019-02-19T21:39:13.955Z,16.50
2019-02-19T21:41:45.631Z,17.23
2019-02-19T21:44:17.003Z,16.80
2019-02-19T21:46:48.162Z,17.10
2019-02-19T21:49:19.329Z,16.23
2019-02-19T21:51:54.127Z,16.57
2019-02-19T21:54:23.297Z,16.40
2019-02-19T21:56:54.389Z,17.25
2019-02-19T21:59:25.548Z,17.57
2019-02-19T22:01:56.695Z,17.70
2019-02-19T22:04:27.878Z,17.62
2019-02-19T22:06:59.076Z,17.43
2019-02-19T22:09:30.128Z,90.90
2019-02-19T22:12:02.472Z,30.57
2019-02-19T22:14:33.891Z,17.97
2019-02-19T22:17:05.067Z,21.35
2019-02-19T22:19:36.181Z,19.95
2019-02-19T22:22:15.532Z,18.97
2019-02-19T22:24:46.684Z,16.60
2019-02-19T22:27:21.325Z,17.80
2019-02-19T22:29:54.268Z,16.40
2019-02-19T22:32:25.554Z,18.00
2019-02-19T22:34:56.761Z,15.77
2019-02-19T22:37:27.846Z,19.02
2019-02-19T22:39:59.248Z,17.90
2019-02-19T22:42:33.459Z,18.13
2019-02-19T22:45:04.815Z,17.93
2019-02-19T22:47:37.215Z,16.53
2019-02-19T22:50:08.618Z,17.60
2019-02-19T22:52:40.387Z,18.83
2019-02-19T22:55:27.420Z,18.52
2019-02-19T22:57:58.754Z,52.50
2019-02-19T23:00:50.663Z,20.27
2019-02-19T23:03:26.221Z,17.97
2019-02-19T23:05:57.517Z,16.60
2019-02-19T23:08:28.630Z,16.50
2019-02-19T23:11:00.164Z,16.10
2019-02-19T23:13:33.607Z,15.80
2019-02-19T23:16:04.955Z,14.93
2019-02-19T23:18:36.416Z,16.20
2019-02-19T23:21:07.512Z,15.63
2019-02-19T23:23:41.766Z,17.10
2019-02-19T23:26:12.822Z,16.93
2019-02-19T23:28:44.256Z,17.60
2019-02-19T23:31:15.404Z,16.70
2019-02-19T23:33:46.390Z,15.43
2019-02-19T23:36:33.945Z,14.80
2019-02-19T23:39:07.723Z,17.10
2019-02-19T23:41:40.433Z,16.07
2019-02-19T23:44:12.518Z,16.00
2019-02-19T23:46:44.101Z,16.27
2019-02-19T23:49:15.224Z,16.03
2019-02-19T23:51:46.408Z,16.60
2019-02-19T23:54:17.665Z,15.30
2019-02-19T23:56:50.843Z,16.30
2019-02-19T23:59:21.995Z,15.83
